Aarau, Switzerland
Current Conditions -  °F | °C
As of 8:20 AM on Thursday 18 Dec 2014 (Local Time) from LSZH Reporting Station
Broken Clouds Broken Clouds  
Wind Chill: 41°   Ceiling: 3000
Heat Index: 45°   Visibility: 6mi
Dew Point: 41°   Wind: 6mph
Humidity: 87%   Direction: 130°SE
Pressure: 30.09"   Gusts: NA
Location:  47.4°N, 8.04°E
Report Text: LSZH 180720Z 13005KT 9999 SCT015 SCT020 BKN030 07/05 Q1019 TEMPO SHRA
Loading
Personal Weather Stations






























Interactive Weather Map New forecast layout! Learn more

10-Day Weather Forecast

Advertisements
Track Severe Weather on mobile